sensor_id;sensor_type;location;lat;lon;timestamp;P1;durP1;ratioP1;P2;durP2;ratioP2
32333;SDS011;18810;53.040;8.850;2023-01-23T00:01:15;14.63;;;9.80;;
32333;SDS011;18810;53.040;8.850;2023-01-23T00:03:44;15.52;;;10.02;;
32333;SDS011;18810;53.040;8.850;2023-01-23T00:06:10;13.95;;;9.30;;
32333;SDS011;18810;53.040;8.850;2023-01-23T00:08:38;17.60;;;9.77;;
32333;SDS011;18810;53.040;8.850;2023-01-23T00:11:05;15.05;;;9.68;;
32333;SDS011;18810;53.040;8.850;2023-01-23T00:13:33;15.07;;;8.88;;
32333;SDS011;18810;53.040;8.850;2023-01-23T00:16:02;14.68;;;9.63;;
32333;SDS011;18810;53.040;8.850;2023-01-23T00:18:31;15.60;;;9.57;;
32333;SDS011;18810;53.040;8.850;2023-01-23T00:20:57;16.38;;;10.20;;
32333;SDS011;18810;53.040;8.850;2023-01-23T00:23:23;14.63;;;9.25;;
32333;SDS011;18810;53.040;8.850;2023-01-23T00:25:49;15.40;;;9.00;;
32333;SDS011;18810;53.040;8.850;2023-01-23T00:28:14;13.68;;;8.75;;
32333;SDS011;18810;53.040;8.850;2023-01-23T00:30:40;11.93;;;8.77;;
32333;SDS011;18810;53.040;8.850;2023-01-23T00:33:06;13.00;;;9.07;;
32333;SDS011;18810;53.040;8.850;2023-01-23T00:35:33;15.18;;;9.35;;
32333;SDS011;18810;53.040;8.850;2023-01-23T00:37:59;16.45;;;8.85;;
32333;SDS011;18810;53.040;8.850;2023-01-23T00:40:24;15.93;;;8.88;;
32333;SDS011;18810;53.040;8.850;2023-01-23T00:42:50;14.82;;;9.10;;
32333;SDS011;18810;53.040;8.850;2023-01-23T00:45:17;13.20;;;8.88;;
32333;SDS011;18810;53.040;8.850;2023-01-23T00:47:43;13.80;;;8.25;;
32333;SDS011;18810;53.040;8.850;2023-01-23T00:50:08;13.63;;;9.65;;
32333;SDS011;18810;53.040;8.850;2023-01-23T00:52:35;13.60;;;8.32;;
32333;SDS011;18810;53.040;8.850;2023-01-23T00:55:00;11.32;;;7.93;;
32333;SDS011;18810;53.040;8.850;2023-01-23T00:57:26;12.80;;;8.63;;
32333;SDS011;18810;53.040;8.850;2023-01-23T00:59:52;13.38;;;8.20;;
32333;SDS011;18810;53.040;8.850;2023-01-23T01:02:18;11.57;;;7.90;;
32333;SDS011;18810;53.040;8.850;2023-01-23T01:04:43;13.73;;;8.40;;
32333;SDS011;18810;53.040;8.850;2023-01-23T01:07:09;13.40;;;8.23;;
32333;SDS011;18810;53.040;8.850;2023-01-23T01:09:35;13.85;;;8.82;;
32333;SDS011;18810;53.040;8.850;2023-01-23T01:12:00;14.10;;;8.63;;
32333;SDS011;18810;53.040;8.850;2023-01-23T01:14:26;10.95;;;8.35;;
32333;SDS011;18810;53.040;8.850;2023-01-23T01:16:51;13.48;;;7.80;;
32333;SDS011;18810;53.040;8.850;2023-01-23T01:19:17;11.52;;;8.32;;
32333;SDS011;18810;53.040;8.850;2023-01-23T01:21:43;11.27;;;7.60;;
32333;SDS011;18810;53.040;8.850;2023-01-23T01:24:09;13.10;;;8.85;;
32333;SDS011;18810;53.040;8.850;2023-01-23T01:26:35;13.15;;;8.35;;
32333;SDS011;18810;53.040;8.850;2023-01-23T01:29:01;11.40;;;7.90;;
32333;SDS011;18810;53.040;8.850;2023-01-23T01:31:27;13.07;;;8.25;;
32333;SDS011;18810;53.040;8.850;2023-01-23T01:33:52;13.07;;;8.32;;
32333;SDS011;18810;53.040;8.850;2023-01-23T01:36:19;11.25;;;7.88;;
32333;SDS011;18810;53.040;8.850;2023-01-23T01:38:46;13.30;;;8.38;;
32333;SDS011;18810;53.040;8.850;2023-01-23T01:41:12;15.07;;;8.07;;
32333;SDS011;18810;53.040;8.850;2023-01-23T01:43:39;11.70;;;8.32;;
32333;SDS011;18810;53.040;8.850;2023-01-23T01:46:17;12.77;;;7.72;;
32333;SDS011;18810;53.040;8.850;2023-01-23T01:51:16;14.20;;;8.40;;
32333;SDS011;18810;53.040;8.850;2023-01-23T01:53:50;14.10;;;8.00;;
32333;SDS011;18810;53.040;8.850;2023-01-23T01:56:21;14.07;;;7.97;;
32333;SDS011;18810;53.040;8.850;2023-01-23T01:58:48;12.88;;;8.65;;
32333;SDS011;18810;53.040;8.850;2023-01-23T02:01:17;11.60;;;7.95;;
32333;SDS011;18810;53.040;8.850;2023-01-23T02:03:43;12.60;;;8.35;;
32333;SDS011;18810;53.040;8.850;2023-01-23T02:06:10;13.50;;;7.50;;
32333;SDS011;18810;53.040;8.850;2023-01-23T02:08:49;10.50;;;7.40;;
32333;SDS011;18810;53.040;8.850;2023-01-23T02:13:55;13.35;;;8.50;;
32333;SDS011;18810;53.040;8.850;2023-01-23T02:16:29;12.23;;;9.07;;
32333;SDS011;18810;53.040;8.850;2023-01-23T02:19:00;11.75;;;8.52;;
32333;SDS011;18810;53.040;8.850;2023-01-23T02:21:31;14.38;;;9.57;;
32333;SDS011;18810;53.040;8.850;2023-01-23T02:26:29;13.55;;;9.90;;
32333;SDS011;18810;53.040;8.850;2023-01-23T02:29:00;14.43;;;9.48;;
32333;SDS011;18810;53.040;8.850;2023-01-23T02:31:27;12.75;;;8.85;;
32333;SDS011;18810;53.040;8.850;2023-01-23T02:33:54;18.48;;;8.98;;
32333;SDS011;18810;53.040;8.850;2023-01-23T02:36:23;12.40;;;8.52;;
32333;SDS011;18810;53.040;8.850;2023-01-23T02:41:35;13.02;;;8.43;;
32333;SDS011;18810;53.040;8.850;2023-01-23T02:44:15;16.30;;;8.88;;
32333;SDS011;18810;53.040;8.850;2023-01-23T02:46:55;13.70;;;8.27;;
32333;SDS011;18810;53.040;8.850;2023-01-23T02:49:22;14.27;;;9.15;;
32333;SDS011;18810;53.040;8.850;2023-01-23T02:51:48;15.80;;;10.00;;
32333;SDS011;18810;53.040;8.850;2023-01-23T02:54:15;15.48;;;9.07;;
32333;SDS011;18810;53.040;8.850;2023-01-23T02:56:42;13.77;;;8.95;;
32333;SDS011;18810;53.040;8.850;2023-01-23T02:59:08;17.45;;;10.20;;
32333;SDS011;18810;53.040;8.850;2023-01-23T03:01:52;10.82;;;8.50;;
32333;SDS011;18810;53.040;8.850;2023-01-23T03:04:18;12.40;;;8.07;;
32333;SDS011;18810;53.040;8.850;2023-01-23T03:06:44;14.40;;;9.18;;
32333;SDS011;18810;53.040;8.850;2023-01-23T03:09:11;14.05;;;8.85;;
32333;SDS011;18810;53.040;8.850;2023-01-23T03:11:39;12.18;;;8.43;;
32333;SDS011;18810;53.040;8.850;2023-01-23T03:14:07;14.40;;;8.82;;
32333;SDS011;18810;53.040;8.850;2023-01-23T03:16:34;14.77;;;8.95;;
32333;SDS011;18810;53.040;8.850;2023-01-23T03:19:03;11.82;;;7.85;;
32333;SDS011;18810;53.040;8.850;2023-01-23T03:21:32;15.05;;;8.25;;
32333;SDS011;18810;53.040;8.850;2023-01-23T03:23:59;13.23;;;8.30;;
32333;SDS011;18810;53.040;8.850;2023-01-23T03:26:26;14.82;;;8.30;;
32333;SDS011;18810;53.040;8.850;2023-01-23T03:28:52;14.35;;;8.23;;
32333;SDS011;18810;53.040;8.850;2023-01-23T03:31:36;11.43;;;7.80;;
32333;SDS011;18810;53.040;8.850;2023-01-23T03:34:02;14.27;;;8.32;;
32333;SDS011;18810;53.040;8.850;2023-01-23T03:36:27;15.73;;;8.15;;
32333;SDS011;18810;53.040;8.850;2023-01-23T03:38:53;12.93;;;8.25;;
32333;SDS011;18810;53.040;8.850;2023-01-23T03:41:37;12.13;;;8.75;;
32333;SDS011;18810;53.040;8.850;2023-01-23T03:44:06;11.70;;;8.60;;
32333;SDS011;18810;53.040;8.850;2023-01-23T03:46:33;14.00;;;8.73;;
32333;SDS011;18810;53.040;8.850;2023-01-23T03:48:59;11.02;;;7.50;;
32333;SDS011;18810;53.040;8.850;2023-01-23T03:51:24;13.05;;;8.02;;
32333;SDS011;18810;53.040;8.850;2023-01-23T03:53:50;11.10;;;7.95;;
32333;SDS011;18810;53.040;8.850;2023-01-23T03:56:15;11.15;;;8.05;;
32333;SDS011;18810;53.040;8.850;2023-01-23T03:58:41;14.30;;;8.82;;
32333;SDS011;18810;53.040;8.850;2023-01-23T04:01:07;11.63;;;8.27;;
32333;SDS011;18810;53.040;8.850;2023-01-23T04:03:33;12.07;;;8.00;;
32333;SDS011;18810;53.040;8.850;2023-01-23T04:05:59;16.20;;;9.25;;
32333;SDS011;18810;53.040;8.850;2023-01-23T04:08:25;11.48;;;8.35;;
32333;SDS011;18810;53.040;8.850;2023-01-23T04:10:51;14.13;;;8.05;;
32333;SDS011;18810;53.040;8.850;2023-01-23T04:13:29;14.15;;;8.20;;
32333;SDS011;18810;53.040;8.850;2023-01-23T04:15:54;10.32;;;7.97;;
32333;SDS011;18810;53.040;8.850;2023-01-23T04:18:21;13.02;;;7.90;;
32333;SDS011;18810;53.040;8.850;2023-01-23T04:20:46;12.57;;;7.75;;
32333;SDS011;18810;53.040;8.850;2023-01-23T04:23:12;17.30;;;8.55;;
32333;SDS011;18810;53.040;8.850;2023-01-23T04:25:38;12.25;;;8.23;;
32333;SDS011;18810;53.040;8.850;2023-01-23T04:28:03;14.25;;;8.90;;
32333;SDS011;18810;53.040;8.850;2023-01-23T04:30:29;13.57;;;8.82;;
32333;SDS011;18810;53.040;8.850;2023-01-23T04:32:54;15.02;;;8.75;;
32333;SDS011;18810;53.040;8.850;2023-01-23T04:35:20;14.68;;;8.70;;
32333;SDS011;18810;53.040;8.850;2023-01-23T04:37:46;11.73;;;8.32;;
32333;SDS011;18810;53.040;8.850;2023-01-23T04:40:11;14.20;;;8.57;;
32333;SDS011;18810;53.040;8.850;2023-01-23T04:42:37;16.60;;;8.82;;
32333;SDS011;18810;53.040;8.850;2023-01-23T04:45:03;13.18;;;9.07;;
32333;SDS011;18810;53.040;8.850;2023-01-23T04:47:29;15.65;;;9.18;;
32333;SDS011;18810;53.040;8.850;2023-01-23T04:49:54;13.55;;;8.30;;
32333;SDS011;18810;53.040;8.850;2023-01-23T04:52:20;14.25;;;8.63;;
32333;SDS011;18810;53.040;8.850;2023-01-23T04:54:45;12.82;;;8.82;;
32333;SDS011;18810;53.040;8.850;2023-01-23T04:57:11;14.15;;;8.90;;
32333;SDS011;18810;53.040;8.850;2023-01-23T04:59:37;16.50;;;10.05;;
32333;SDS011;18810;53.040;8.850;2023-01-23T05:02:03;15.25;;;9.65;;
32333;SDS011;18810;53.040;8.850;2023-01-23T05:04:28;16.73;;;9.55;;
32333;SDS011;18810;53.040;8.850;2023-01-23T05:06:54;14.07;;;9.43;;
32333;SDS011;18810;53.040;8.850;2023-01-23T05:09:20;17.02;;;10.30;;
32333;SDS011;18810;53.040;8.850;2023-01-23T05:11:45;16.73;;;9.52;;
32333;SDS011;18810;53.040;8.850;2023-01-23T05:14:11;12.52;;;9.30;;
32333;SDS011;18810;53.040;8.850;2023-01-23T05:16:36;14.65;;;9.82;;
32333;SDS011;18810;53.040;8.850;2023-01-23T05:19:02;17.95;;;10.05;;
32333;SDS011;18810;53.040;8.850;2023-01-23T05:21:28;14.88;;;10.30;;
32333;SDS011;18810;53.040;8.850;2023-01-23T05:23:56;16.63;;;10.88;;
32333;SDS011;18810;53.040;8.850;2023-01-23T05:26:21;12.50;;;8.98;;
32333;SDS011;18810;53.040;8.850;2023-01-23T05:28:47;13.23;;;9.32;;
32333;SDS011;18810;53.040;8.850;2023-01-23T05:31:13;17.73;;;9.43;;
32333;SDS011;18810;53.040;8.850;2023-01-23T05:33:38;16.58;;;9.57;;
32333;SDS011;18810;53.040;8.850;2023-01-23T05:36:04;16.13;;;9.73;;
32333;SDS011;18810;53.040;8.850;2023-01-23T05:38:30;14.73;;;9.38;;
32333;SDS011;18810;53.040;8.850;2023-01-23T05:40:56;18.95;;;10.90;;
32333;SDS011;18810;53.040;8.850;2023-01-23T05:43:21;15.70;;;9.90;;
32333;SDS011;18810;53.040;8.850;2023-01-23T05:45:47;15.55;;;9.18;;
32333;SDS011;18810;53.040;8.850;2023-01-23T05:48:13;17.38;;;9.98;;
32333;SDS011;18810;53.040;8.850;2023-01-23T05:50:39;18.13;;;10.43;;
32333;SDS011;18810;53.040;8.850;2023-01-23T05:53:05;15.32;;;9.88;;
32333;SDS011;18810;53.040;8.850;2023-01-23T05:55:30;16.65;;;10.32;;
32333;SDS011;18810;53.040;8.850;2023-01-23T05:57:56;18.55;;;10.15;;
32333;SDS011;18810;53.040;8.850;2023-01-23T06:00:22;18.77;;;11.55;;
32333;SDS011;18810;53.040;8.850;2023-01-23T06:02:48;16.92;;;10.00;;
32333;SDS011;18810;53.040;8.850;2023-01-23T06:05:13;16.73;;;10.30;;
32333;SDS011;18810;53.040;8.850;2023-01-23T06:07:39;14.90;;;9.50;;
32333;SDS011;18810;53.040;8.850;2023-01-23T06:10:05;18.15;;;10.00;;
32333;SDS011;18810;53.040;8.850;2023-01-23T06:12:31;15.15;;;9.15;;
32333;SDS011;18810;53.040;8.850;2023-01-23T06:14:57;16.58;;;9.85;;
32333;SDS011;18810;53.040;8.850;2023-01-23T06:17:22;13.85;;;9.88;;
32333;SDS011;18810;53.040;8.850;2023-01-23T06:19:48;14.25;;;9.60;;
32333;SDS011;18810;53.040;8.850;2023-01-23T06:22:14;17.33;;;10.50;;
32333;SDS011;18810;53.040;8.850;2023-01-23T06:24:39;15.50;;;9.65;;
32333;SDS011;18810;53.040;8.850;2023-01-23T06:27:05;14.93;;;9.38;;
32333;SDS011;18810;53.040;8.850;2023-01-23T06:29:34;17.67;;;9.57;;
32333;SDS011;18810;53.040;8.850;2023-01-23T06:32:00;15.98;;;10.73;;
32333;SDS011;18810;53.040;8.850;2023-01-23T06:34:26;16.10;;;10.40;;
32333;SDS011;18810;53.040;8.850;2023-01-23T06:36:54;14.90;;;10.02;;
32333;SDS011;18810;53.040;8.850;2023-01-23T06:39:20;16.67;;;10.10;;
32333;SDS011;18810;53.040;8.850;2023-01-23T06:41:46;21.23;;;10.38;;
32333;SDS011;18810;53.040;8.850;2023-01-23T06:44:11;15.25;;;9.73;;
32333;SDS011;18810;53.040;8.850;2023-01-23T06:46:37;16.77;;;10.38;;
32333;SDS011;18810;53.040;8.850;2023-01-23T06:49:03;18.60;;;10.68;;
32333;SDS011;18810;53.040;8.850;2023-01-23T06:51:29;19.52;;;10.45;;
32333;SDS011;18810;53.040;8.850;2023-01-23T06:53:55;18.50;;;10.40;;
32333;SDS011;18810;53.040;8.850;2023-01-23T06:56:21;15.48;;;10.30;;
32333;SDS011;18810;53.040;8.850;2023-01-23T06:58:46;16.92;;;10.30;;
32333;SDS011;18810;53.040;8.850;2023-01-23T07:01:14;19.88;;;10.75;;
32333;SDS011;18810;53.040;8.850;2023-01-23T07:03:42;15.77;;;10.00;;
32333;SDS011;18810;53.040;8.850;2023-01-23T07:06:11;18.10;;;10.93;;
32333;SDS011;18810;53.040;8.850;2023-01-23T07:08:38;20.33;;;10.90;;
32333;SDS011;18810;53.040;8.850;2023-01-23T07:11:04;17.33;;;11.68;;
32333;SDS011;18810;53.040;8.850;2023-01-23T07:13:30;19.75;;;11.95;;
32333;SDS011;18810;53.040;8.850;2023-01-23T07:15:55;23.45;;;12.63;;
32333;SDS011;18810;53.040;8.850;2023-01-23T07:18:21;21.17;;;11.68;;
32333;SDS011;18810;53.040;8.850;2023-01-23T07:20:47;20.48;;;12.60;;
32333;SDS011;18810;53.040;8.850;2023-01-23T07:23:16;23.48;;;13.35;;
32333;SDS011;18810;53.040;8.850;2023-01-23T07:25:41;21.92;;;12.15;;
32333;SDS011;18810;53.040;8.850;2023-01-23T07:28:08;20.95;;;11.57;;
32333;SDS011;18810;53.040;8.850;2023-01-23T07:30:34;23.67;;;12.15;;
32333;SDS011;18810;53.040;8.850;2023-01-23T07:32:59;23.20;;;12.02;;
32333;SDS011;18810;53.040;8.850;2023-01-23T07:35:25;21.27;;;12.88;;
32333;SDS011;18810;53.040;8.850;2023-01-23T07:37:51;21.80;;;12.13;;
32333;SDS011;18810;53.040;8.850;2023-01-23T07:40:16;22.38;;;12.25;;
32333;SDS011;18810;53.040;8.850;2023-01-23T07:42:42;19.95;;;11.10;;
32333;SDS011;18810;53.040;8.850;2023-01-23T07:45:09;18.92;;;12.23;;
32333;SDS011;18810;53.040;8.850;2023-01-23T07:47:35;22.60;;;13.65;;
32333;SDS011;18810;53.040;8.850;2023-01-23T07:50:03;23.25;;;12.95;;
32333;SDS011;18810;53.040;8.850;2023-01-23T07:55:00;21.55;;;13.32;;
32333;SDS011;18810;53.040;8.850;2023-01-23T07:57:26;26.98;;;14.85;;
32333;SDS011;18810;53.040;8.850;2023-01-23T07:59:51;28.92;;;15.45;;
32333;SDS011;18810;53.040;8.850;2023-01-23T08:02:17;27.60;;;14.32;;
32333;SDS011;18810;53.040;8.850;2023-01-23T08:04:42;35.75;;;16.38;;
32333;SDS011;18810;53.040;8.850;2023-01-23T08:07:08;25.60;;;13.23;;
32333;SDS011;18810;53.040;8.850;2023-01-23T08:09:34;26.38;;;13.05;;
32333;SDS011;18810;53.040;8.850;2023-01-23T08:11:59;23.98;;;13.80;;
32333;SDS011;18810;53.040;8.850;2023-01-23T08:14:25;22.90;;;13.20;;
32333;SDS011;18810;53.040;8.850;2023-01-23T08:16:51;22.85;;;13.73;;
32333;SDS011;18810;53.040;8.850;2023-01-23T08:19:17;22.52;;;12.75;;
32333;SDS011;18810;53.040;8.850;2023-01-23T08:21:43;24.45;;;14.25;;
32333;SDS011;18810;53.040;8.850;2023-01-23T08:24:12;22.33;;;13.13;;
32333;SDS011;18810;53.040;8.850;2023-01-23T08:26:38;23.25;;;13.40;;
32333;SDS011;18810;53.040;8.850;2023-01-23T08:29:05;24.10;;;13.48;;
32333;SDS011;18810;53.040;8.850;2023-01-23T08:31:31;25.17;;;13.38;;
32333;SDS011;18810;53.040;8.850;2023-01-23T08:33:57;21.10;;;13.13;;
32333;SDS011;18810;53.040;8.850;2023-01-23T08:36:22;24.50;;;14.68;;
32333;SDS011;18810;53.040;8.850;2023-01-23T08:38:48;25.83;;;14.00;;
32333;SDS011;18810;53.040;8.850;2023-01-23T08:41:14;22.10;;;13.52;;
32333;SDS011;18810;53.040;8.850;2023-01-23T08:43:39;24.10;;;14.00;;
32333;SDS011;18810;53.040;8.850;2023-01-23T08:46:06;26.15;;;14.25;;
32333;SDS011;18810;53.040;8.850;2023-01-23T08:48:33;22.58;;;13.45;;
32333;SDS011;18810;53.040;8.850;2023-01-23T08:51:06;23.52;;;13.50;;
32333;SDS011;18810;53.040;8.850;2023-01-23T08:53:34;23.52;;;13.60;;
32333;SDS011;18810;53.040;8.850;2023-01-23T08:56:00;27.15;;;15.27;;
32333;SDS011;18810;53.040;8.850;2023-01-23T08:58:28;27.67;;;14.65;;
32333;SDS011;18810;53.040;8.850;2023-01-23T09:00:54;21.50;;;13.50;;
32333;SDS011;18810;53.040;8.850;2023-01-23T09:03:20;23.83;;;13.35;;
32333;SDS011;18810;53.040;8.850;2023-01-23T09:05:45;21.25;;;13.32;;
32333;SDS011;18810;53.040;8.850;2023-01-23T09:08:11;24.58;;;14.82;;
32333;SDS011;18810;53.040;8.850;2023-01-23T09:10:37;24.58;;;13.52;;
32333;SDS011;18810;53.040;8.850;2023-01-23T09:13:02;24.27;;;12.90;;
32333;SDS011;18810;53.040;8.850;2023-01-23T09:15:28;22.33;;;12.55;;
32333;SDS011;18810;53.040;8.850;2023-01-23T09:17:54;24.10;;;13.68;;
32333;SDS011;18810;53.040;8.850;2023-01-23T09:20:20;23.48;;;13.73;;
32333;SDS011;18810;53.040;8.850;2023-01-23T09:22:46;24.13;;;14.10;;
32333;SDS011;18810;53.040;8.850;2023-01-23T09:25:12;24.13;;;13.88;;
32333;SDS011;18810;53.040;8.850;2023-01-23T09:27:38;20.58;;;13.20;;
32333;SDS011;18810;53.040;8.850;2023-01-23T09:30:04;26.17;;;13.45;;
32333;SDS011;18810;53.040;8.850;2023-01-23T09:32:31;23.02;;;13.23;;
32333;SDS011;18810;53.040;8.850;2023-01-23T09:34:56;27.27;;;14.27;;
32333;SDS011;18810;53.040;8.850;2023-01-23T09:37:22;23.48;;;14.93;;
32333;SDS011;18810;53.040;8.850;2023-01-23T09:39:47;22.65;;;14.45;;
32333;SDS011;18810;53.040;8.850;2023-01-23T09:42:14;32.33;;;16.55;;
32333;SDS011;18810;53.040;8.850;2023-01-23T09:44:47;29.60;;;15.07;;
32333;SDS011;18810;53.040;8.850;2023-01-23T09:47:29;24.60;;;13.48;;
32333;SDS011;18810;53.040;8.850;2023-01-23T09:50:05;20.75;;;13.68;;
32333;SDS011;18810;53.040;8.850;2023-01-23T09:52:43;21.40;;;13.70;;
32333;SDS011;18810;53.040;8.850;2023-01-23T09:55:14;22.58;;;14.13;;
32333;SDS011;18810;53.040;8.850;2023-01-23T09:57:49;24.58;;;14.18;;
32333;SDS011;18810;53.040;8.850;2023-01-23T10:00:27;21.83;;;13.50;;
32333;SDS011;18810;53.040;8.850;2023-01-23T10:02:55;25.00;;;14.18;;
32333;SDS011;18810;53.040;8.850;2023-01-23T10:05:33;23.58;;;14.02;;
32333;SDS011;18810;53.040;8.850;2023-01-23T10:13:34;22.73;;;13.43;;
32333;SDS011;18810;53.040;8.850;2023-01-23T10:29:59;24.05;;;14.13;;
32333;SDS011;18810;53.040;8.850;2023-01-23T10:32:45;24.55;;;13.50;;
32333;SDS011;18810;53.040;8.850;2023-01-23T10:35:16;26.08;;;13.98;;
32333;SDS011;18810;53.040;8.850;2023-01-23T10:37:50;23.00;;;13.77;;
32333;SDS011;18810;53.040;8.850;2023-01-23T10:40:23;22.48;;;13.32;;
32333;SDS011;18810;53.040;8.850;2023-01-23T10:43:14;20.90;;;12.68;;
32333;SDS011;18810;53.040;8.850;2023-01-23T10:45:41;24.17;;;14.32;;
32333;SDS011;18810;53.040;8.850;2023-01-23T10:50:58;24.70;;;15.15;;
32333;SDS011;18810;53.040;8.850;2023-01-23T10:53:24;24.10;;;13.55;;
32333;SDS011;18810;53.040;8.850;2023-01-23T10:55:51;24.40;;;14.27;;
32333;SDS011;18810;53.040;8.850;2023-01-23T11:01:05;24.45;;;13.95;;
32333;SDS011;18810;53.040;8.850;2023-01-23T11:03:47;22.95;;;13.48;;
32333;SDS011;18810;53.040;8.850;2023-01-23T11:06:16;21.10;;;13.75;;
32333;SDS011;18810;53.040;8.850;2023-01-23T11:08:58;22.23;;;13.23;;
32333;SDS011;18810;53.040;8.850;2023-01-23T11:11:25;25.33;;;13.90;;
32333;SDS011;18810;53.040;8.850;2023-01-23T11:16:40;22.80;;;13.98;;
32333;SDS011;18810;53.040;8.850;2023-01-23T11:21:37;22.98;;;14.50;;
32333;SDS011;18810;53.040;8.850;2023-01-23T11:24:17;24.17;;;13.10;;
32333;SDS011;18810;53.040;8.850;2023-01-23T11:32:49;28.70;;;14.63;;
32333;SDS011;18810;53.040;8.850;2023-01-23T11:35:43;25.40;;;14.63;;
32333;SDS011;18810;53.040;8.850;2023-01-23T11:38:18;27.63;;;14.73;;
32333;SDS011;18810;53.040;8.850;2023-01-23T11:40:47;28.45;;;14.48;;
32333;SDS011;18810;53.040;8.850;2023-01-23T11:43:16;27.80;;;13.93;;
32333;SDS011;18810;53.040;8.850;2023-01-23T11:48:40;21.85;;;13.43;;
32333;SDS011;18810;53.040;8.850;2023-01-23T11:54:10;27.20;;;14.07;;
32333;SDS011;18810;53.040;8.850;2023-01-23T11:59:59;24.05;;;14.60;;
32333;SDS011;18810;53.040;8.850;2023-01-23T12:16:23;25.42;;;14.15;;
32333;SDS011;18810;53.040;8.850;2023-01-23T12:24:30;36.08;;;16.23;;
32333;SDS011;18810;53.040;8.850;2023-01-23T12:38:30;30.15;;;15.82;;
32333;SDS011;18810;53.040;8.850;2023-01-23T12:47:13;26.40;;;16.40;;
32333;SDS011;18810;53.040;8.850;2023-01-23T12:49:53;25.67;;;15.32;;
32333;SDS011;18810;53.040;8.850;2023-01-23T12:52:34;24.75;;;15.35;;
32333;SDS011;18810;53.040;8.850;2023-01-23T12:55:14;24.63;;;15.73;;
32333;SDS011;18810;53.040;8.850;2023-01-23T12:58:00;24.92;;;15.40;;
32333;SDS011;18810;53.040;8.850;2023-01-23T13:08:25;27.13;;;15.07;;
32333;SDS011;18810;53.040;8.850;2023-01-23T13:13:46;27.60;;;16.00;;
32333;SDS011;18810;53.040;8.850;2023-01-23T13:16:12;29.38;;;16.52;;
32333;SDS011;18810;53.040;8.850;2023-01-23T13:18:53;28.13;;;16.42;;
32333;SDS011;18810;53.040;8.850;2023-01-23T13:21:38;30.50;;;16.90;;
32333;SDS011;18810;53.040;8.850;2023-01-23T13:24:30;26.95;;;16.13;;
32333;SDS011;18810;53.040;8.850;2023-01-23T13:32:50;28.88;;;16.20;;
32333;SDS011;18810;53.040;8.850;2023-01-23T13:52:16;29.17;;;17.42;;
32333;SDS011;18810;53.040;8.850;2023-01-23T13:55:17;28.63;;;16.10;;
32333;SDS011;18810;53.040;8.850;2023-01-23T13:58:04;29.13;;;17.33;;
32333;SDS011;18810;53.040;8.850;2023-01-23T14:00:32;32.30;;;18.13;;
32333;SDS011;18810;53.040;8.850;2023-01-23T14:06:10;26.77;;;17.08;;
32333;SDS011;18810;53.040;8.850;2023-01-23T14:08:46;25.80;;;16.83;;
32333;SDS011;18810;53.040;8.850;2023-01-23T14:11:16;28.02;;;17.58;;
32333;SDS011;18810;53.040;8.850;2023-01-23T14:13:48;27.27;;;17.08;;
32333;SDS011;18810;53.040;8.850;2023-01-23T14:16:40;31.52;;;18.02;;
32333;SDS011;18810;53.040;8.850;2023-01-23T14:19:24;31.95;;;18.55;;
32333;SDS011;18810;53.040;8.850;2023-01-23T14:21:57;28.77;;;17.17;;
32333;SDS011;18810;53.040;8.850;2023-01-23T14:24:44;28.02;;;17.13;;
32333;SDS011;18810;53.040;8.850;2023-01-23T14:27:21;25.08;;;16.40;;
32333;SDS011;18810;53.040;8.850;2023-01-23T14:32:25;30.55;;;17.08;;
32333;SDS011;18810;53.040;8.850;2023-01-23T14:34:53;30.15;;;16.95;;
32333;SDS011;18810;53.040;8.850;2023-01-23T14:37:19;28.98;;;17.30;;
32333;SDS011;18810;53.040;8.850;2023-01-23T14:39:45;29.75;;;17.48;;
32333;SDS011;18810;53.040;8.850;2023-01-23T14:42:12;27.90;;;18.40;;
32333;SDS011;18810;53.040;8.850;2023-01-23T14:44:54;25.52;;;16.52;;
32333;SDS011;18810;53.040;8.850;2023-01-23T14:49:58;29.98;;;18.15;;
32333;SDS011;18810;53.040;8.850;2023-01-23T14:52:27;28.92;;;17.90;;
32333;SDS011;18810;53.040;8.850;2023-01-23T14:54:54;27.98;;;17.00;;
32333;SDS011;18810;53.040;8.850;2023-01-23T14:57:24;26.52;;;17.00;;
32333;SDS011;18810;53.040;8.850;2023-01-23T14:59:52;27.08;;;17.05;;
32333;SDS011;18810;53.040;8.850;2023-01-23T15:07:32;29.95;;;17.85;;
32333;SDS011;18810;53.040;8.850;2023-01-23T15:09:59;24.67;;;16.90;;
32333;SDS011;18810;53.040;8.850;2023-01-23T15:12:25;27.25;;;18.25;;
32333;SDS011;18810;53.040;8.850;2023-01-23T15:14:52;26.73;;;17.17;;
32333;SDS011;18810;53.040;8.850;2023-01-23T15:17:20;25.65;;;16.83;;
32333;SDS011;18810;53.040;8.850;2023-01-23T15:19:53;28.13;;;17.08;;
32333;SDS011;18810;53.040;8.850;2023-01-23T15:22:20;27.85;;;17.13;;
32333;SDS011;18810;53.040;8.850;2023-01-23T15:24:52;25.77;;;16.85;;
32333;SDS011;18810;53.040;8.850;2023-01-23T15:29:49;27.25;;;17.40;;
32333;SDS011;18810;53.040;8.850;2023-01-23T15:32:17;30.27;;;18.13;;
32333;SDS011;18810;53.040;8.850;2023-01-23T15:34:54;32.38;;;19.45;;
32333;SDS011;18810;53.040;8.850;2023-01-23T15:37:25;29.42;;;18.02;;
32333;SDS011;18810;53.040;8.850;2023-01-23T15:39:52;29.77;;;18.50;;
32333;SDS011;18810;53.040;8.850;2023-01-23T15:42:24;31.98;;;20.60;;
32333;SDS011;18810;53.040;8.850;2023-01-23T15:44:51;30.80;;;19.52;;
32333;SDS011;18810;53.040;8.850;2023-01-23T15:47:17;31.05;;;19.48;;
32333;SDS011;18810;53.040;8.850;2023-01-23T15:49:42;28.88;;;17.92;;
32333;SDS011;18810;53.040;8.850;2023-01-23T15:55:04;30.20;;;18.05;;
32333;SDS011;18810;53.040;8.850;2023-01-23T15:57:31;29.10;;;18.10;;
32333;SDS011;18810;53.040;8.850;2023-01-23T15:59:56;29.45;;;17.77;;
32333;SDS011;18810;53.040;8.850;2023-01-23T16:02:22;30.80;;;17.52;;
32333;SDS011;18810;53.040;8.850;2023-01-23T16:04:48;28.27;;;17.45;;
32333;SDS011;18810;53.040;8.850;2023-01-23T16:07:30;27.17;;;16.75;;
32333;SDS011;18810;53.040;8.850;2023-01-23T16:10:04;29.58;;;17.65;;
32333;SDS011;18810;53.040;8.850;2023-01-23T16:12:43;27.83;;;16.77;;
32333;SDS011;18810;53.040;8.850;2023-01-23T16:15:13;29.10;;;16.58;;
32333;SDS011;18810;53.040;8.850;2023-01-23T16:17:40;29.67;;;17.30;;
32333;SDS011;18810;53.040;8.850;2023-01-23T16:20:11;28.48;;;17.90;;
32333;SDS011;18810;53.040;8.850;2023-01-23T16:22:41;32.78;;;16.67;;
32333;SDS011;18810;53.040;8.850;2023-01-23T16:25:18;29.45;;;18.20;;
32333;SDS011;18810;53.040;8.850;2023-01-23T16:28:17;28.50;;;17.48;;
32333;SDS011;18810;53.040;8.850;2023-01-23T16:30:45;30.88;;;18.02;;
32333;SDS011;18810;53.040;8.850;2023-01-23T16:33:11;30.88;;;17.75;;
32333;SDS011;18810;53.040;8.850;2023-01-23T16:35:37;27.33;;;17.42;;
32333;SDS011;18810;53.040;8.850;2023-01-23T16:38:04;30.02;;;17.42;;
32333;SDS011;18810;53.040;8.850;2023-01-23T16:40:30;30.77;;;18.25;;
32333;SDS011;18810;53.040;8.850;2023-01-23T16:42:56;27.02;;;17.55;;
32333;SDS011;18810;53.040;8.850;2023-01-23T16:45:25;27.92;;;17.10;;
32333;SDS011;18810;53.040;8.850;2023-01-23T16:47:53;27.65;;;17.92;;
32333;SDS011;18810;53.040;8.850;2023-01-23T16:50:22;29.50;;;17.25;;
32333;SDS011;18810;53.040;8.850;2023-01-23T16:52:56;31.60;;;18.90;;
32333;SDS011;18810;53.040;8.850;2023-01-23T16:55:37;29.25;;;17.88;;
32333;SDS011;18810;53.040;8.850;2023-01-23T16:58:04;30.42;;;18.73;;
32333;SDS011;18810;53.040;8.850;2023-01-23T17:00:31;29.00;;;18.50;;
32333;SDS011;18810;53.040;8.850;2023-01-23T17:02:59;29.73;;;18.50;;